Puerta de Luna, New Mexico
Current Conditions -  °F | °C
As of 1:53 AM on Monday 20 Oct 2014 (Local Time) from KCQC Reporting Station
Clear Clear  
Wind Chill: 41°   Ceiling: Unl
Heat Index: 44°   Visibility: 10mi
Dew Point: 36°   Wind: 6mph
Humidity: 73%   Direction: 10°N
Pressure: 30.22"   Gusts: NA
Location:  34.8581°N, 104.704°W
Report Text: KCQC 200753Z AUTO 01005KT 10SM CLR 07/02 A3022 RMK AO2 SLP165 T00670022
Loading
Personal Weather Stations






























Interactive Weather Map
Tropical Storm Tracking
New forecast layout! Learn more

10-Day Weather Forecast

Advertisements
Track Severe Weather on mobile